Time;durP1;ratioP1;P1;durP2;ratioP2;P2;SDS_P1;SDS_P2;PMS_P1;PMS_P2;Temp;Humidity;BMP_temperature;BMP_pressure;BME280_temperature;BME280_humidity;BME280_pressure;Samples;Min_cycle;Max_cycle;Signal;HPM_P1;HPM_P2
2021/06/13 00:01:39;;;;;;;2.10;1.25;;;;;;;29.13;29.08;98055.59;5056429;28;20029;-81
2021/06/13 00:04:05;;;;;;;1.40;1.13;;;;;;;29.34;28.66;98070.91;5050938;28;20031;-81
2021/06/13 00:06:32;;;;;;;1.77;1.42;;;;;;;29.48;28.67;98066.69;5055066;28;20497;-81
2021/06/13 00:08:58;;;;;;;2.33;1.55;;;;;;;29.10;28.77;98059.38;5055878;28;20431;-81
2021/06/13 00:11:24;;;;;;;2.25;1.10;;;;;;;29.21;28.61;98054.09;5059896;28;20032;-81
2021/06/13 00:13:51;;;;;;;1.25;1.02;;;;;;;29.36;28.80;98063.50;5085465;28;20079;-82
2021/06/13 00:16:18;;;;;;;1.20;1.02;;;;;;;29.75;28.02;98055.34;5084294;28;20493;-82
2021/06/13 00:18:44;;;;;;;1.83;1.20;;;;;;;29.64;28.27;98050.16;5053263;28;20067;-82
2021/06/13 00:21:13;;;;;;;3.58;1.48;;;;;;;29.29;28.75;98052.50;5059993;28;20040;-82
2021/06/13 00:23:40;;;;;;;3.13;1.50;;;;;;;28.89;29.61;98059.50;5065702;28;20354;-82
2021/06/13 00:26:07;;;;;;;1.15;1.13;;;;;;;29.13;29.21;98061.25;5053468;28;20048;-81
2021/06/13 00:28:33;;;;;;;2.22;1.30;;;;;;;29.28;28.89;98055.81;5063767;28;20124;-81
2021/06/13 00:31:00;;;;;;;1.23;1.00;;;;;;;29.22;29.19;98058.47;5062122;28;20040;-81
2021/06/13 00:33:26;;;;;;;1.00;1.00;;;;;;;29.37;28.79;98056.63;5052809;28;20136;-81
2021/06/13 00:35:52;;;;;;;1.88;1.17;;;;;;;29.36;28.91;98059.88;5053320;28;20041;-81
2021/06/13 00:38:18;;;;;;;1.30;1.20;;;;;;;29.15;29.36;98057.97;5055387;28;20481;-81
2021/06/13 00:40:44;;;;;;;1.17;1.10;;;;;;;29.15;29.44;98055.91;5051462;28;20123;-81
2021/06/13 00:43:10;;;;;;;1.23;1.13;;;;;;;29.15;29.12;98047.44;5055219;28;20102;-81
2021/06/13 00:45:37;;;;;;;1.25;0.90;;;;;;;28.89;29.28;98056.66;5055403;28;20504;-81
2021/06/13 00:48:03;;;;;;;1.88;1.35;;;;;;;28.91;29.99;98054.94;5058533;28;20117;-81
2021/06/13 00:50:34;;;;;;;1.65;1.23;;;;;;;28.98;29.52;98046.16;5063927;28;20107;-81
2021/06/13 00:53:05;;;;;;;1.58;1.25;;;;;;;28.97;29.25;98049.44;5055205;28;20033;-82
2021/06/13 00:55:33;;;;;;;1.75;1.38;;;;;;;28.91;29.71;98054.16;5058963;28;20033;-82
2021/06/13 00:58:00;;;;;;;1.80;1.15;;;;;;;29.18;29.40;98051.41;5055584;28;20393;-82
2021/06/13 01:00:27;;;;;;;1.35;1.20;;;;;;;29.25;29.26;98051.09;5060487;28;20040;-81
2021/06/13 01:02:54;;;;;;;0.93;0.93;;;;;;;29.37;29.07;98047.34;5058762;28;20071;-82
2021/06/13 01:05:20;;;;;;;1.48;1.35;;;;;;;29.08;29.38;98052.63;5056035;28;20033;-82
2021/06/13 01:08:05;;;;;;;0.90;0.90;;;;;;;28.89;29.75;98042.53;5059741;28;20412;-81
2021/06/13 01:10:48;;;;;;;1.95;1.48;;;;;;;28.71;30.15;98051.75;5055391;28;20432;-82
2021/06/13 01:13:28;;;;;;;1.98;1.45;;;;;;;28.80;30.04;98039.69;5061184;28;20527;-81
2021/06/13 01:16:12;;;;;;;2.40;1.60;;;;;;;28.58;30.10;98043.38;5056436;28;20078;-81
2021/06/13 01:19:27;;;;;;;2.03;1.38;;;;;;;28.95;29.80;98038.63;5060444;28;20040;-81
2021/06/13 01:21:59;;;;;;;1.65;1.55;;;;;;;28.66;29.88;98039.00;5063414;28;20111;-81
2021/06/13 01:25:14;;;;;;;2.17;1.60;;;;;;;28.69;30.04;98040.13;5062406;28;20032;-81
2021/06/13 01:28:22;;;;;;;1.58;1.45;;;;;;;28.11;31.20;98040.00;5056843;28;20178;-82
2021/06/13 01:30:51;;;;;;;1.75;1.30;;;;;;;27.79;31.17;98032.75;5061757;28;20040;-82
2021/06/13 01:33:18;;;;;;;2.40;2.03;;;;;;;28.08;31.51;98021.16;5061225;28;20116;-82
2021/06/13 01:35:46;;;;;;;7.32;2.17;;;;;;;28.03;31.44;98028.22;5054804;28;20037;-81
2021/06/13 01:38:15;;;;;;;2.00;1.60;;;;;;;28.28;30.66;98021.59;5057116;28;20397;-81
2021/06/13 01:40:42;;;;;;;2.33;1.90;;;;;;;28.16;31.19;98030.16;5055963;28;20064;-81
2021/06/13 01:43:10;;;;;;;1.70;1.60;;;;;;;28.60;30.46;98017.50;5061239;28;20400;-81
2021/06/13 01:45:39;;;;;;;1.80;1.63;;;;;;;29.02;29.84;98021.34;5066918;28;20036;-81
2021/06/13 01:48:11;;;;;;;1.02;0.93;;;;;;;28.67;30.10;98026.47;5055568;28;20071;-82
2021/06/13 01:50:38;;;;;;;2.00;1.90;;;;;;;28.73;30.02;98029.44;5058999;28;20033;-82
2021/06/13 01:53:11;;;;;;;2.15;1.90;;;;;;;28.27;30.93;98030.50;5055983;28;20056;-82
2021/06/13 01:55:37;;;;;;;2.55;2.05;;;;;;;28.04;31.37;98026.97;5060393;28;20115;-82
2021/06/13 01:58:06;;;;;;;2.97;2.72;;;;;;;27.60;32.39;98036.69;5054283;28;20029;-81
2021/06/13 02:00:36;;;;;;;2.67;2.47;;;;;;;27.84;31.73;98049.06;5057689;28;20055;-82
2021/06/13 02:03:03;;;;;;;2.40;2.05;;;;;;;27.17;32.30;98045.06;5062230;28;20396;-82
2021/06/13 02:05:33;;;;;;;4.63;2.97;;;;;;;26.73;33.63;98033.66;5057911;28;20384;-82
2021/06/13 02:07:59;;;;;;;2.75;2.50;;;;;;;27.30;32.84;98026.88;5062412;28;20036;-82
2021/06/13 02:10:27;;;;;;;4.47;3.30;;;;;;;27.69;32.46;98038.78;5053967;28;20025;-82
2021/06/13 02:12:53;;;;;;;2.63;2.40;;;;;;;28.06;31.60;98034.97;5061476;28;20025;-81
2021/06/13 02:15:24;;;;;;;1.95;1.70;;;;;;;27.60;32.25;98050.78;5058506;28;20059;-82
2021/06/13 02:17:51;;;;;;;3.45;2.33;;;;;;;26.98;32.97;98046.91;5054639;28;20045;-82
2021/06/13 02:20:29;;;;;;;1.90;1.80;;;;;;;26.63;33.31;98046.06;5064415;28;20438;-81
2021/06/13 02:22:55;;;;;;;2.30;2.10;;;;;;;27.11;32.78;98044.88;5065294;28;20396;-81
2021/06/13 02:25:23;;;;;;;3.17;2.10;;;;;;;27.35;31.97;98039.59;5060523;28;20029;-81
2021/06/13 02:27:58;;;;;;;2.30;2.10;;;;;;;27.48;31.67;98050.84;5055283;28;20045;-82
2021/06/13 02:30:26;;;;;;;3.08;2.40;;;;;;;27.38;31.53;98056.41;5063347;28;20366;-82
2021/06/13 02:32:55;;;;;;;2.95;1.70;;;;;;;27.63;31.65;98054.72;5054502;28;20198;-81
2021/06/13 02:35:23;;;;;;;2.22;1.77;;;;;;;27.67;31.17;98061.03;5056791;28;20025;-81
2021/06/13 02:37:51;;;;;;;3.83;1.70;;;;;;;27.39;31.79;98069.28;5057379;28;20063;-81
2021/06/13 02:40:18;;;;;;;1.80;1.70;;;;;;;27.57;31.15;98071.44;5053177;28;20025;-82
2021/06/13 02:42:44;;;;;;;1.48;1.38;;;;;;;27.58;31.24;98075.06;5056481;28;20473;-82
2021/06/13 02:45:15;;;;;;;1.30;1.20;;;;;;;28.20;30.07;98088.06;5058827;28;20393;-82
2021/06/13 02:47:41;;;;;;;;;;;;;;;27.24;31.64;98087.09;5067282;28;20024;-82
2021/06/13 02:50:09;;;;;;;4.38;1.45;;;;;;;27.79;30.31;98088.41;5060394;28;19939;-82
2021/06/13 02:53:00;;;;;;;2.75;1.60;;;;;;;28.14;29.67;98083.47;5061996;28;20025;-82
2021/06/13 02:55:43;;;;;;;2.40;1.20;;;;;;;27.55;30.23;98085.22;5064521;28;20393;-82
2021/06/13 02:58:46;;;;;;;1.45;1.35;;;;;;;26.91;31.28;98097.88;5064965;28;20033;-81
2021/06/13 03:01:16;;;;;;;1.40;1.30;;;;;;;27.39;30.57;98091.84;5041126;28;20080;-81
2021/06/13 03:03:44;;;;;;;1.92;0.90;;;;;;;27.54;30.24;98105.44;5053487;28;20024;-81
2021/06/13 03:06:19;;;;;;;0.88;0.88;;;;;;;27.13;30.30;98109.22;5055588;28;20036;-81
2021/06/13 03:08:47;;;;;;;2.83;1.20;;;;;;;27.55;30.58;98107.00;5058538;28;20469;-81
2021/06/13 03:11:14;;;;;;;3.45;1.23;;;;;;;27.31;30.70;98120.69;5058566;28;20468;-81
2021/06/13 03:13:44;;;;;;;4.90;1.58;;;;;;;27.26;30.90;98121.25;5064309;28;20025;-82
2021/06/13 03:16:11;;;;;;;2.97;1.25;;;;;;;27.10;31.27;98122.19;5054450;28;20389;-82
2021/06/13 03:18:40;;;;;;;3.00;1.25;;;;;;;27.11;30.98;98128.63;5052805;28;20033;-82
2021/06/13 03:21:06;;;;;;;1.33;1.00;;;;;;;27.20;30.81;98137.97;5052376;28;20029;-82
2021/06/13 03:23:33;;;;;;;2.33;1.00;;;;;;;27.12;30.06;98144.31;5051717;28;20032;-82
2021/06/13 03:26:02;;;;;;;1.42;1.25;;;;;;;27.08;30.99;98150.06;5059221;28;20079;-82
2021/06/13 03:28:29;;;;;;;1.80;1.13;;;;;;;27.16;29.95;98153.44;5059646;28;20040;-81
2021/06/13 03:30:56;;;;;;;2.08;0.95;;;;;;;27.53;29.94;98158.22;5055865;28;20493;-82
2021/06/13 03:33:23;;;;;;;2.38;1.10;;;;;;;27.87;29.59;98163.06;5052168;28;20033;-81
2021/06/13 03:35:51;;;;;;;1.30;1.00;;;;;;;27.90;29.46;98164.97;5052427;28;20137;-81
2021/06/13 03:38:19;;;;;;;1.15;1.05;;;;;;;28.70;28.35;98166.03;5053342;28;20409;-82
2021/06/13 03:40:47;;;;;;;1.45;1.10;;;;;;;28.75;28.19;98168.25;5052821;28;20110;-82
2021/06/13 03:43:14;;;;;;;2.55;1.15;;;;;;;28.89;27.64;98164.88;5057006;28;20025;-82
2021/06/13 03:45:40;;;;;;;1.63;1.10;;;;;;;28.26;28.45;98172.97;5057918;28;20044;-81
2021/06/13 03:48:09;;;;;;;1.67;0.95;;;;;;;28.00;29.01;98167.47;5056118;28;20430;-81
2021/06/13 03:50:35;;;;;;;2.13;0.80;;;;;;;27.78;28.81;98168.63;5056338;28;20090;-82
2021/06/13 03:53:02;;;;;;;0.70;0.70;;;;;;;27.09;29.88;98184.69;5053660;28;20041;-82
2021/06/13 03:55:29;;;;;;;0.70;0.70;;;;;;;27.11;29.94;98188.63;5053854;28;20108;-82
2021/06/13 03:57:57;;;;;;;1.30;0.77;;;;;;;27.54;29.50;98192.88;5058360;28;20504;-81
2021/06/13 04:00:26;;;;;;;1.27;0.75;;;;;;;28.06;28.42;98209.97;5061048;28;20032;-82
2021/06/13 04:02:52;;;;;;;1.52;0.77;;;;;;;27.82;28.90;98201.13;5058585;28;20369;-81
2021/06/13 04:05:20;;;;;;;0.63;0.60;;;;;;;27.35;29.45;98205.97;5060646;28;20035;-81
2021/06/13 04:07:46;;;;;;;1.88;0.80;;;;;;;27.54;29.58;98204.16;5056988;28;20401;-81
2021/06/13 04:10:18;;;;;;;1.40;0.60;;;;;;;27.80;29.13;98211.28;5052312;28;20048;-81
2021/06/13 04:12:46;;;;;;;1.25;0.95;;;;;;;28.27;28.26;98208.41;5056325;28;20393;-81
2021/06/13 04:15:13;;;;;;;1.95;0.82;;;;;;;28.34;28.35;98202.50;5064202;28;20034;-82
2021/06/13 04:17:41;;;;;;;0.90;0.80;;;;;;;28.03;28.61;98213.72;5059760;28;20036;-81
2021/06/13 04:20:10;;;;;;;1.23;0.95;;;;;;;28.52;28.33;98206.22;5057035;28;20025;-82
2021/06/13 04:22:38;;;;;;;0.85;0.75;;;;;;;28.53;28.05;98212.69;5062666;28;20163;-82
2021/06/13 04:25:07;;;;;;;3.85;1.02;;;;;;;28.40;28.01;98207.09;5060893;28;20033;-82
2021/06/13 04:27:36;;;;;;;0.98;0.70;;;;;;;28.56;27.82;98206.91;5058565;28;20512;-82
2021/06/13 04:30:05;;;;;;;0.65;0.57;;;;;;;27.69;29.13;98208.84;5057386;28;20039;-82
2021/06/13 04:32:31;;;;;;;2.15;0.85;;;;;;;27.96;28.95;98216.75;5054787;28;20091;-81
2021/06/13 04:34:58;;;;;;;1.00;0.90;;;;;;;28.04;28.69;98218.13;5065242;28;20028;-82
2021/06/13 04:37:24;;;;;;;2.13;0.85;;;;;;;27.78;29.35;98214.56;5057875;28;20032;-82
2021/06/13 04:39:50;;;;;;;0.88;0.70;;;;;;;27.71;29.43;98214.03;5063497;28;20071;-81
2021/06/13 04:42:16;;;;;;;1.95;1.00;;;;;;;27.93;29.15;98207.19;5070118;28;20052;-81
2021/06/13 04:44:43;;;;;;;2.20;0.73;;;;;;;27.57;29.75;98220.94;5055776;28;20037;-81
2021/06/13 04:47:10;;;;;;;2.58;0.80;;;;;;;27.57;29.30;98212.47;5063260;28;20094;-81
2021/06/13 04:49:37;;;;;;;1.25;1.15;;;;;;;27.46;30.35;98217.72;5058412;28;20096;-81
2021/06/13 04:52:05;;;;;;;2.30;0.80;;;;;;;27.50;30.07;98204.25;5062109;28;20051;-81
2021/06/13 04:55:00;;;;;;;0.95;0.77;;;;;;;28.28;28.84;98205.16;5063874;28;20413;-82
2021/06/13 04:57:39;;;;;;;2.05;0.90;;;;;;;27.51;29.76;98211.50;5056774;28;20021;-81
2021/06/13 05:00:05;;;;;;;1.13;0.88;;;;;;;28.08;29.12;98220.84;5054367;28;20029;-81
2021/06/13 05:02:32;;;;;;;2.17;0.85;;;;;;;27.02;30.72;98213.09;5059379;28;20106;-82
2021/06/13 05:04:58;;;;;;;1.38;1.20;;;;;;;26.99;31.02;98216.78;5061788;28;20550;-82
2021/06/13 05:07:25;;;;;;;1.73;1.20;;;;;;;26.99;31.29;98225.25;5057558;28;20037;-82
2021/06/13 05:09:51;;;;;;;2.30;1.00;;;;;;;27.57;29.90;98223.78;5056604;28;20033;-82
2021/06/13 05:12:17;;;;;;;2.35;0.95;;;;;;;27.73;29.28;98217.19;5066537;28;20599;-81
2021/06/13 05:14:43;;;;;;;1.80;1.00;;;;;;;27.94;29.33;98219.25;5062531;28;20029;-81
2021/06/13 05:17:09;;;;;;;1.27;0.70;;;;;;;28.14;28.89;98233.09;5058929;28;20041;-82
2021/06/13 05:19:35;;;;;;;1.42;0.82;;;;;;;28.21;28.47;98228.00;5068661;28;20111;-81
2021/06/13 05:22:06;;;;;;;0.82;0.80;;;;;;;28.56;27.89;98231.53;5057286;28;20039;-82
2021/06/13 05:24:32;;;;;;;0.98;0.85;;;;;;;28.79;27.66;98236.72;5062229;28;20688;-81
2021/06/13 05:26:59;;;;;;;2.70;1.23;;;;;;;28.44;28.16;98238.03;5064571;28;20047;-81
2021/06/13 05:29:25;;;;;;;3.13;1.10;;;;;;;28.53;27.69;98243.75;5061638;28;20162;-81
2021/06/13 05:31:51;;;;;;;2.17;0.90;;;;;;;28.14;28.24;98242.38;5058923;28;20095;-81
2021/06/13 05:34:17;;;;;;;2.05;0.90;;;;;;;27.85;28.56;98245.38;5055461;28;20102;-81
2021/06/13 05:36:43;;;;;;;0.60;0.60;;;;;;;27.51;29.63;98253.00;5059865;28;20056;-81
2021/06/13 05:39:09;;;;;;;0.98;0.82;;;;;;;27.20;29.92;98252.78;5065465;28;20108;-81
2021/06/13 05:41:35;;;;;;;2.88;1.17;;;;;;;27.72;29.56;98252.28;5060886;28;20028;-81
2021/06/13 05:44:02;;;;;;;2.70;1.05;;;;;;;27.32;29.90;98252.78;5070122;28;20399;-81
2021/06/13 05:46:29;;;;;;;1.55;1.42;;;;;;;27.84;29.41;98243.00;5060328;28;20112;-81
2021/06/13 05:48:55;;;;;;;2.80;0.90;;;;;;;28.37;29.04;98241.94;5071466;28;20115;-81
2021/06/13 05:51:21;;;;;;;1.60;0.70;;;;;;;28.32;28.72;98244.53;5064173;28;20041;-81
2021/06/13 05:53:47;;;;;;;2.25;1.02;;;;;;;27.11;29.82;98258.28;5061019;28;20112;-82
2021/06/13 05:56:13;;;;;;;3.42;1.58;;;;;;;26.50;30.97;98275.41;5065263;28;20037;-81
2021/06/13 05:58:40;;;;;;;1.55;1.40;;;;;;;27.11;30.18;98263.94;5059297;28;20082;-82
2021/06/13 06:01:06;;;;;;;1.30;0.90;;;;;;;26.48;30.89;98266.59;5062941;28;20037;-82
2021/06/13 06:03:32;;;;;;;3.35;1.20;;;;;;;25.72;32.80;98276.69;5062318;28;20036;-82
2021/06/13 06:05:58;;;;;;;2.05;1.33;;;;;;;25.72;33.50;98271.84;5061594;28;20103;-82
2021/06/13 06:08:27;;;;;;;1.67;1.10;;;;;;;25.50;31.97;98262.38;5054491;28;20033;-83
2021/06/13 06:10:53;;;;;;;3.72;1.30;;;;;;;25.78;32.14;98280.56;5065397;28;20032;-82
2021/06/13 06:13:19;;;;;;;3.05;0.90;;;;;;;26.27;31.58;98289.72;5069733;28;20496;-82
2021/06/13 06:15:45;;;;;;;1.77;1.00;;;;;;;26.77;30.71;98294.78;5064847;28;20112;-82
2021/06/13 06:18:11;;;;;;;1.17;0.90;;;;;;;26.46;30.96;98303.66;5060836;28;20028;-82
2021/06/13 06:20:37;;;;;;;2.17;1.20;;;;;;;27.55;29.85;98291.13;5057016;28;20068;-82
2021/06/13 06:23:04;;;;;;;1.63;1.00;;;;;;;28.17;29.25;98295.09;5065150;28;20033;-82
2021/06/13 06:25:31;;;;;;;0.80;0.57;;;;;;;28.52;28.84;98284.56;5063183;28;20037;-82
2021/06/13 06:27:58;;;;;;;2.00;0.95;;;;;;;28.69;28.55;98291.63;5057219;28;20045;-82
2021/06/13 06:30:26;;;;;;;0.82;0.70;;;;;;;28.04;28.87;98288.69;5062553;28;20040;-82
2021/06/13 06:32:52;;;;;;;1.67;0.80;;;;;;;27.79;30.07;98300.03;5054619;28;20104;-82
2021/06/13 06:35:19;;;;;;;0.75;0.52;;;;;;;28.67;28.81;98303.38;5059938;28;20035;-82
2021/06/13 06:37:45;;;;;;;0.95;0.60;;;;;;;28.00;28.71;98297.31;5068589;28;20068;-82
2021/06/13 06:40:13;;;;;;;1.77;0.60;;;;;;;28.61;28.13;98301.63;5063274;28;20056;-82
2021/06/13 06:42:40;;;;;;;0.63;0.52;;;;;;;29.25;27.44;98308.47;5058847;28;20124;-83
2021/06/13 06:45:08;;;;;;;2.17;0.50;;;;;;;29.09;27.88;98308.66;5060428;28;20035;-82
2021/06/13 06:47:35;;;;;;;0.68;0.40;;;;;;;28.94;27.74;98302.75;5057982;28;20484;-80
2021/06/13 06:50:01;;;;;;;2.88;0.60;;;;;;;28.64;28.26;98309.94;5066436;28;20430;-81
2021/06/13 06:52:27;;;;;;;0.88;0.50;;;;;;;28.97;28.04;98301.84;5053952;28;20068;-81
2021/06/13 06:54:53;;;;;;;2.78;0.60;;;;;;;29.21;28.42;98313.47;5064082;28;20373;-81
2021/06/13 06:57:19;;;;;;;1.02;0.60;;;;;;;29.84;27.99;98308.09;5061662;28;20024;-82
2021/06/13 06:59:45;;;;;;;4.10;0.70;;;;;;;29.10;28.73;98308.19;5056369;28;20028;-82
2021/06/13 07:02:12;;;;;;;1.70;0.70;;;;;;;28.79;28.53;98304.56;5063009;28;20036;-81
2021/06/13 07:04:38;;;;;;;1.85;0.77;;;;;;;28.48;28.88;98307.28;5060602;28;20029;-82
2021/06/13 07:07:04;;;;;;;2.38;0.68;;;;;;;28.40;29.22;98302.38;5060357;28;20553;-81
2021/06/13 07:09:30;;;;;;;2.13;0.45;;;;;;;29.03;27.91;98299.22;5057133;28;20036;-81
2021/06/13 07:11:57;;;;;;;1.25;0.80;;;;;;;28.65;28.52;98307.91;5063901;28;20070;-81
2021/06/13 07:14:23;;;;;;;1.85;0.70;;;;;;;28.83;28.29;98307.25;5066596;28;20500;-82
2021/06/13 07:16:49;;;;;;;1.50;0.80;;;;;;;28.03;28.80;98321.78;5063194;28;20021;-81
2021/06/13 07:19:15;;;;;;;1.05;0.60;;;;;;;28.41;28.42;98316.00;5061849;28;20043;-80
2021/06/13 07:21:43;;;;;;;1.30;0.80;;;;;;;26.86;29.87;98317.44;5065441;28;21302;-80
2021/06/13 07:24:09;;;;;;;1.15;0.70;;;;;;;25.81;30.88;98328.28;5065874;28;20036;-80
2021/06/13 07:26:35;;;;;;;2.65;0.50;;;;;;;26.62;29.35;98328.97;5052123;28;20025;-80
2021/06/13 07:29:02;;;;;;;0.93;0.63;;;;;;;26.50;30.00;98326.09;5064063;28;20480;-80
2021/06/13 07:31:28;;;;;;;1.73;0.68;;;;;;;27.17;28.92;98339.03;5051924;28;20106;-80
2021/06/13 07:33:54;;;;;;;0.63;0.50;;;;;;;27.21;28.46;98342.53;5060168;28;20035;-81
2021/06/13 07:36:20;;;;;;;2.30;0.88;;;;;;;26.80;29.37;98338.94;5064834;28;20489;-81
2021/06/13 07:38:46;;;;;;;3.67;0.95;;;;;;;26.37;30.13;98339.34;5067665;28;20484;-80
2021/06/13 07:41:12;;;;;;;1.55;0.70;;;;;;;26.99;29.36;98341.59;5059665;28;20419;-80
2021/06/13 07:43:38;;;;;;;2.97;0.70;;;;;;;28.13;29.20;98339.59;5058436;28;20131;-80
2021/06/13 07:46:05;;;;;;;1.92;0.82;;;;;;;28.17;28.14;98339.50;5063727;28;20036;-79
2021/06/13 07:48:31;;;;;;;0.95;0.50;;;;;;;28.48;27.77;98348.88;5063719;28;20044;-80
2021/06/13 07:50:57;;;;;;;0.73;0.70;;;;;;;27.80;28.38;98352.38;5063455;28;20037;-79
2021/06/13 07:53:23;;;;;;;1.40;0.60;;;;;;;27.08;29.70;98363.47;5060298;28;20037;-79
2021/06/13 07:55:49;;;;;;;0.90;0.50;;;;;;;26.94;29.81;98361.88;5061977;28;20159;-79
2021/06/13 07:58:15;;;;;;;2.83;1.05;;;;;;;26.96;29.54;98348.13;5056963;28;20037;-80
2021/06/13 08:00:41;;;;;;;1.08;0.60;;;;;;;26.26;29.49;98359.31;5063996;28;20093;-80
2021/06/13 08:03:08;;;;;;;1.13;0.70;;;;;;;27.22;28.38;98354.59;5061207;28;20078;-80
2021/06/13 08:05:35;;;;;;;4.55;0.93;;;;;;;27.05;28.02;98344.66;5059106;28;20029;-80
2021/06/13 08:08:06;;;;;;;1.25;0.60;;;;;;;26.33;29.57;98376.00;5062236;28;20051;-80
2021/06/13 08:10:34;;;;;;;1.38;0.77;;;;;;;27.09;28.76;98363.06;5060064;28;20175;-80
2021/06/13 08:13:01;;;;;;;4.63;0.50;;;;;;;27.58;27.25;98371.25;5073429;28;20051;-79
2021/06/13 08:15:28;;;;;;;1.73;0.70;;;;;;;26.21;28.54;98368.28;5063323;28;20072;-79
2021/06/13 08:17:54;;;;;;;1.35;0.50;;;;;;;26.53;28.26;98384.34;5058628;28;20066;-80
2021/06/13 08:20:20;;;;;;;1.02;0.60;;;;;;;25.70;30.21;98380.38;5061021;28;20866;-82
2021/06/13 08:22:47;;;;;;;0.68;0.63;;;;;;;26.20;28.72;98386.41;5061131;28;20044;-80
2021/06/13 08:25:13;;;;;;;2.58;0.73;;;;;;;26.10;28.82;98390.28;5063747;28;20033;-81
2021/06/13 08:27:40;;;;;;;1.00;0.65;;;;;;;26.95;27.52;98386.00;5060019;28;20041;-81
2021/06/13 08:30:09;;;;;;;1.05;0.55;;;;;;;27.23;27.52;98373.09;5061930;28;20055;-81
2021/06/13 08:32:36;;;;;;;2.50;0.50;;;;;;;27.75;27.07;98381.94;5059813;28;20159;-80
2021/06/13 08:35:03;;;;;;;2.40;0.68;;;;;;;27.85;27.54;98392.13;5056891;28;20065;-80
2021/06/13 08:37:29;;;;;;;0.60;0.40;;;;;;;27.56;28.08;98385.81;5058048;28;20041;-80
2021/06/13 08:39:55;;;;;;;0.55;0.47;;;;;;;27.06;28.20;98394.94;5057777;28;20435;-81
2021/06/13 08:42:21;;;;;;;1.90;0.57;;;;;;;28.08;25.99;98391.78;5063903;28;20047;-80
2021/06/13 08:44:48;;;;;;;2.58;0.50;;;;;;;26.69;28.08;98418.91;5064716;28;20028;-81
2021/06/13 08:47:18;;;;;;;1.17;0.65;;;;;;;26.26;26.79;98393.09;5067637;28;20449;-80
2021/06/13 08:49:46;;;;;;;3.25;0.70;;;;;;;26.06;28.13;98398.00;5063578;28;20059;-80
2021/06/13 08:52:12;;;;;;;1.30;0.60;;;;;;;25.42;29.03;98407.91;5063124;28;20078;-80
2021/06/13 08:54:39;;;;;;;1.38;0.60;;;;;;;25.39;28.71;98416.44;5064775;28;20396;-80
2021/06/13 08:57:06;;;;;;;3.22;0.80;;;;;;;25.87;28.13;98408.09;5062249;28;20589;-80
2021/06/13 08:59:33;;;;;;;1.48;0.50;;;;;;;26.06;27.01;98409.25;5059233;28;20052;-81
2021/06/13 09:02:00;;;;;;;0.90;0.70;;;;;;;26.83;27.39;98406.47;5061778;28;20115;-80
2021/06/13 09:04:26;;;;;;;1.52;0.60;;;;;;;27.61;25.62;98415.50;5065736;28;20033;-80
2021/06/13 09:06:52;;;;;;;2.85;0.60;;;;;;;26.12;26.92;98395.47;5070359;28;20029;-80
2021/06/13 09:09:26;;;;;;;1.45;0.73;;;;;;;26.39;25.75;98407.25;5065580;28;20130;-81
2021/06/13 09:12:01;;;;;;;1.70;0.60;;;;;;;26.33;27.32;98409.78;5067782;28;20040;-80
2021/06/13 09:14:28;;;;;;;4.40;0.60;;;;;;;27.40;25.08;98412.06;5065117;28;20074;-80
2021/06/13 09:16:55;;;;;;;1.88;0.50;;;;;;;27.55;24.90;98420.88;5064704;28;20419;-78
2021/06/13 09:19:21;;;;;;;2.17;0.57;;;;;;;27.67;24.65;98413.69;5061286;28;20028;-79
2021/06/13 09:21:48;;;;;;;2.05;0.60;;;;;;;27.57;23.59;98411.97;5057656;28;20045;-79
2021/06/13 09:24:24;;;;;;;1.60;0.50;;;;;;;27.14;25.25;98415.25;5056001;28;20043;-80
2021/06/13 09:26:55;;;;;;;1.40;0.55;;;;;;;26.16;27.54;98415.88;5057368;28;20514;-80
2021/06/13 09:29:22;;;;;;;0.90;0.43;;;;;;;26.19;27.15;98415.78;5058637;28;20127;-80
2021/06/13 09:32:08;;;;;;;2.08;0.85;;;;;;;25.92;27.22;98426.50;5054326;28;20040;-80
2021/06/13 09:34:34;;;;;;;0.70;0.40;;;;;;;26.52;26.52;98434.25;5052242;28;20067;-79
2021/06/13 09:37:04;;;;;;;3.30;1.02;;;;;;;27.89;24.83;98440.00;5054345;28;20029;-80
2021/06/13 09:39:32;;;;;;;;;;;;;;;27.53;24.28;98439.50;5050672;28;20048;-81
2021/06/13 09:42:08;;;;;;;1.17;0.40;;;;;;;28.12;24.38;98436.06;5057251;28;19920;-82
2021/06/13 09:44:36;;;;;;;1.25;0.45;;;;;;;28.92;23.79;98440.16;5056770;28;20518;-82
2021/06/13 09:47:03;;;;;;;1.85;0.50;;;;;;;28.03;24.53;98442.38;5052348;28;20033;-82
2021/06/13 09:49:44;;;;;;;3.20;0.60;;;;;;;27.77;24.71;98447.19;5054136;28;20552;-81
2021/06/13 09:52:11;;;;;;;2.90;0.50;;;;;;;27.79;24.95;98438.28;5056595;28;20028;-82
2021/06/13 09:54:37;;;;;;;1.05;0.60;;;;;;;27.43;25.44;98455.50;5053322;28;20037;-81
2021/06/13 09:57:03;;;;;;;0.60;0.40;;;;;;;28.37;24.55;98455.78;5058450;28;20025;-81
2021/06/13 09:59:34;;;;;;;2.47;0.55;;;;;;;27.82;25.40;98455.09;5063180;28;20029;-81
2021/06/13 10:02:01;;;;;;;;;;;;;;;28.50;23.36;98454.50;5059209;28;20439;-82
2021/06/13 10:04:33;;;;;;;1.08;0.40;;;;;;;27.69;24.56;98467.63;5058530;28;19956;-83
2021/06/13 10:07:24;;;;;;;1.33;0.60;;;;;;;28.47;23.94;98463.88;5057498;28;20068;-83
2021/06/13 10:09:52;;;;;;;0.95;0.30;;;;;;;29.81;22.57;98452.59;5064418;28;20045;-82
2021/06/13 10:12:20;;;;;;;1.65;0.50;;;;;;;29.58;23.63;98455.91;5064887;28;20074;-81
2021/06/13 10:14:48;;;;;;;1.85;0.45;;;;;;;29.70;22.53;98464.34;5055246;28;20114;-82
2021/06/13 10:17:15;;;;;;;0.80;0.55;;;;;;;29.90;22.81;98458.31;5061863;28;20047;-81
2021/06/13 10:19:44;;;;;;;1.00;0.43;;;;;;;28.70;23.53;98465.59;5061187;28;20028;-82
2021/06/13 10:22:12;;;;;;;0.98;0.47;;;;;;;28.41;23.49;98470.56;5056528;28;20400;-81
2021/06/13 10:24:41;;;;;;;0.85;0.50;;;;;;;28.58;23.42;98481.28;5063958;28;20036;-81
2021/06/13 10:27:13;;;;;;;1.42;0.52;;;;;;;29.04;22.68;98479.69;5054089;28;20064;-82
2021/06/13 10:29:45;;;;;;;1.00;0.63;;;;;;;28.05;24.22;98502.78;5054181;28;20033;-82
2021/06/13 10:32:12;;;;;;;1.85;0.50;;;;;;;27.35;25.04;98496.41;5062819;28;20111;-82
2021/06/13 10:34:39;;;;;;;4.18;0.75;;;;;;;27.96;24.62;98494.16;5062291;28;20033;-82
2021/06/13 10:37:09;;;;;;;0.98;0.50;;;;;;;28.11;23.80;98499.41;5066395;28;20032;-82
2021/06/13 10:39:36;;;;;;;1.30;0.80;;;;;;;28.29;23.08;98496.78;5063429;28;20078;-81
2021/06/13 10:42:08;;;;;;;0.52;0.40;;;;;;;28.28;23.79;98503.69;5060670;28;20032;-81
2021/06/13 10:44:50;;;;;;;2.05;0.50;;;;;;;27.92;23.12;98501.97;5063259;28;20555;-81
2021/06/13 10:47:17;;;;;;;2.05;0.52;;;;;;;27.34;24.61;98500.47;5056813;28;20032;-82
2021/06/13 10:49:46;;;;;;;1.65;0.50;;;;;;;28.27;23.20;98505.72;5064706;28;20041;-82
2021/06/13 10:52:20;;;;;;;0.65;0.30;;;;;;;28.21;21.89;98503.94;5060248;28;20051;-83
2021/06/13 10:54:50;;;;;;;1.88;0.60;;;;;;;28.12;22.72;98495.34;5060861;28;20032;-81
2021/06/13 10:57:16;;;;;;;1.13;0.60;;;;;;;28.70;21.64;98497.47;5061796;28;20043;-81
2021/06/13 10:59:52;;;;;;;1.33;0.50;;;;;;;29.11;21.17;98478.66;5058196;28;20040;-81
2021/06/13 11:02:24;;;;;;;2.88;0.40;;;;;;;29.50;21.15;98478.03;5059665;28;20033;-80
2021/06/13 11:04:58;;;;;;;0.75;0.30;;;;;;;30.56;21.03;98483.13;5056231;28;20036;-81
2021/06/13 11:07:40;;;;;;;2.53;0.55;;;;;;;29.52;21.27;98461.41;5062868;28;20079;-81
2021/06/13 11:10:18;;;;;;;1.17;0.50;;;;;;;28.96;22.47;98478.41;5062830;28;20049;-81
2021/06/13 11:13:03;;;;;;;0.82;0.30;;;;;;;28.90;22.75;98487.88;5063762;28;20149;-81
2021/06/13 11:15:39;;;;;;;1.20;0.40;;;;;;;27.57;23.93;98493.78;5060198;28;20037;-81
2021/06/13 11:18:23;;;;;;;0.93;0.70;;;;;;;27.43;23.65;98486.53;5055950;28;20032;-81
2021/06/13 11:21:05;;;;;;;1.23;0.40;;;;;;;27.74;23.78;98492.47;5061316;28;20086;-81
2021/06/13 11:23:31;;;;;;;3.08;0.60;;;;;;;28.27;23.21;98471.03;5059233;28;20028;-81
2021/06/13 11:26:03;;;;;;;2.00;0.60;;;;;;;28.71;21.41;98484.91;5060246;28;20029;-80
2021/06/13 11:28:48;;;;;;;1.00;0.47;;;;;;;27.78;23.50;98498.78;5054278;28;20041;-81
2021/06/13 11:31:14;;;;;;;0.57;0.40;;;;;;;27.93;23.22;98497.13;5061836;28;20480;-83
2021/06/13 11:33:43;;;;;;;8.50;0.63;;;;;;;29.26;22.21;98502.38;5064496;28;20040;-82
2021/06/13 11:36:16;;;;;;;0.68;0.50;;;;;;;29.01;21.76;98497.56;5059671;28;20484;-82
2021/06/13 11:38:43;;;;;;;1.58;0.50;;;;;;;29.20;22.11;98495.72;5064641;28;20496;-81
2021/06/13 11:41:23;;;;;;;1.08;0.40;;;;;;;29.00;21.98;98498.03;5058773;28;20066;-83
2021/06/13 11:43:49;;;;;;;1.43;0.40;;;;;;;30.06;22.07;98498.50;5057114;28;20020;-82